This is the latest recevied weather packets stored in our database for station/object IW1QAF-33. If no packets are shown the sender has not sent any weather packets the latest 1 day(s).
| Time | Temp. | Humidity | Pressure | Rain* | Wind** | Luminosity | Snow |
|---|---|---|---|---|---|---|---|
| 1778070743 | 18.89° C | 100% | 1009 hPa | 0 mm | - | 116 W/m² | - |
| 1778067116 | 18.33° C | 100% | 1008 hPa | 0 mm | - | 41 W/m² | - |
| 1778066512 | 20° C | 100% | 1008 hPa | 0 mm | - | 58 W/m² | - |
| 1778065304 | 17.78° C | 100% | 1009 hPa | 0 mm | - | 60 W/m² | - |
| 1778064700 | 19.44° C | 100% | 1009 hPa | 0 mm | - | 63 W/m² | - |
| 1778062284 | 18.89° C | 100% | 1009 hPa | 0 mm | - | 173 W/m² | - |
| 1778061680 | 17.22° C | 100% | 1008 hPa | 0 mm | - | 44 W/m² | - |
| 1778058703 | 21.67° C | 100% | 1010 hPa | 0 mm | - | 182 W/m² | - |
| 1778057452 | 20.56° C | 100% | 1009 hPa | 0 mm | - | 141 W/m² | - |
| 1778054433 | 21.67° C | 100% | 1009 hPa | 0 mm | - | 183 W/m² | - |
| 1778053829 | 20.56° C | 100% | 1009 hPa | 0 mm | - | 172 W/m² | - |
| 1778052621 | 18.89° C | 100% | 1007 hPa | 0 mm | - | 236 W/m² | - |
| 1778049601 | 16.67° C | 100% | 1004 hPa | 0.76 mm | - | 270 W/m² | - |
| 1778048991 | 15° C | 100% | 1004 hPa | 1.27 mm | - | 14 W/m² | - |
| 1778048386 | 15° C | 100% | 1004 hPa | 1.78 mm | - | 8 W/m² | - |
| 1778046584 | 13.33° C | 100% | 1004 hPa | 2.79 mm | - | 4 W/m² | - |
| 1778041145 | 13.33° C | 100% | 1005 hPa | 0 mm | - | 1 W/m² | - |
| 1778040541 | 15.56° C | 100% | 1006 hPa | 0 mm | - | 0 W/m² | - |
| 1778038776 | 14.44° C | 100% | 1006 hPa | 0 mm | - | 0 W/m² | - |
| 1778038730 | 14.44° C | 100% | 1006 hPa | 0 mm | - | 0 W/m² | - |
| 1778037521 | 14.44° C | 100% | 1006 hPa | 0 mm | - | 0 W/m² | - |
| 1778036965 | 13.33° C | 100% | 1006 hPa | 0.25 mm | - | 0 W/m² | - |
| 1778036917 | 13.33° C | 100% | 1006 hPa | 0.25 mm | - | 0 W/m² | - |
| 1778036306 | 13.89° C | 100% | 1006 hPa | 0.25 mm | - | 0 W/m² | - |
| 1778035709 | 13.33° C | 100% | 1006 hPa | 0.25 mm | - | 0 W/m² | - |
* Rain latest hour (hover to see other rain measurements)
** Current wind speed in m/s (hover to see current wind gust speed)